Time;durP1;ratioP1;P1;durP2;ratioP2;P2;SDS_P1;SDS_P2;PMS_P1;PMS_P2;Temp;Humidity;BMP_temperature;BMP_pressure;BME280_temperature;BME280_humidity;BME280_pressure;Samples;Min_cycle;Max_cycle;Signal;HPM_P1;HPM_P2
2022/01/14 00:00:56;;;;;;;36.65;9.70;;;5.40;99.90;;;;;;4974450;28;20026;-75
2022/01/14 00:03:21;;;;;;;24.27;8.80;;;5.40;99.90;;;;;;4974898;28;20495;-74
2022/01/14 00:05:48;;;;;;;36.78;9.60;;;5.40;99.90;;;;;;4976096;28;20081;-74
2022/01/14 00:08:14;;;;;;;31.58;9.80;;;5.30;99.90;;;;;;4975024;28;20034;-75
2022/01/14 00:10:41;;;;;;;26.75;10.18;;;5.30;99.90;;;;;;4973432;28;20483;-75
2022/01/14 00:13:26;;;;;;;38.80;10.07;;;5.40;99.90;;;;;;4973559;28;20033;-75
2022/01/14 00:15:52;;;;;;;26.27;8.68;;;5.40;99.90;;;;;;4975896;28;20812;-75
2022/01/14 00:18:17;;;;;;;38.53;8.95;;;5.40;99.90;;;;;;4974894;28;20043;-74
2022/01/14 00:20:43;;;;;;;23.33;9.02;;;5.30;99.90;;;;;;4968938;28;20038;-74
2022/01/14 00:23:10;;;;;;;34.33;9.02;;;5.30;99.90;;;;;;4972741;28;20035;-77
2022/01/14 00:33:31;;;;;;;30.33;9.40;;;5.30;99.90;;;;;;4974482;28;20057;-75
2022/01/14 00:35:57;;;;;;;33.40;9.55;;;5.30;99.90;;;;;;4973006;28;20416;-74
2022/01/14 00:38:22;;;;;;;26.00;7.97;;;5.30;99.90;;;;;;4975038;28;20033;-75
2022/01/14 00:40:48;;;;;;;33.17;9.57;;;5.40;99.90;;;;;;4975368;28;20039;-74
2022/01/14 00:43:15;;;;;;;24.23;9.18;;;5.40;99.90;;;;;;4975240;28;20054;-75
2022/01/14 00:45:41;;;;;;;28.20;9.48;;;5.40;99.90;;;;;;4973255;28;20406;-74
2022/01/14 00:48:07;;;;;;;27.83;9.52;;;5.40;99.90;;;;;;4974053;28;20073;-75
2022/01/14 00:50:33;;;;;;;27.73;10.00;;;5.40;99.90;;;;;;4975206;28;20054;-75
2022/01/14 00:53:00;;;;;;;30.80;10.13;;;5.50;99.90;;;;;;4964423;28;20037;-73
2022/01/14 00:55:40;;;;;;;29.42;9.43;;;5.50;99.90;;;;;;4973031;28;20046;-75
2022/01/14 01:00:50;;;;;;;36.92;9.13;;;5.50;99.90;;;;;;4956079;29;20492;-74
2022/01/14 01:03:15;;;;;;;26.30;9.90;;;5.40;99.90;;;;;;4953686;28;20027;-74
2022/01/14 01:05:41;;;;;;;22.48;8.52;;;5.40;99.90;;;;;;4962005;28;20419;-74
2022/01/14 01:08:13;;;;;;;28.45;9.52;;;5.40;99.90;;;;;;4974922;28;20030;-74
2022/01/14 01:10:47;;;;;;;29.05;9.88;;;5.40;99.90;;;;;;4974692;28;20027;-74
2022/01/14 01:13:20;;;;;;;29.52;11.15;;;5.40;99.90;;;;;;4971316;28;20019;-74
2022/01/14 01:15:46;;;;;;;24.90;9.73;;;5.40;99.90;;;;;;4974839;28;20391;-75
2022/01/14 01:18:11;;;;;;;28.98;9.82;;;5.40;99.90;;;;;;4974305;28;20122;-75
2022/01/14 01:20:37;;;;;;;26.17;9.80;;;5.50;99.90;;;;;;4974625;28;20023;-74
2022/01/14 01:23:04;;;;;;;28.17;10.25;;;5.50;99.90;;;;;;4978786;28;20035;-75
2022/01/14 01:25:37;;;;;;;19.52;7.10;;;5.50;99.90;;;;;;4986463;28;20026;-75
2022/01/14 01:28:04;;;;;;;29.70;9.77;;;5.50;99.90;;;;;;4984210;28;20023;-74
2022/01/14 01:32:55;;;;;;;21.58;8.93;;;5.50;99.90;;;;;;4982349;28;20039;-74
2022/01/14 01:35:21;;;;;;;26.95;8.38;;;5.50;99.90;;;;;;4999464;28;20078;-72
2022/01/14 01:37:47;;;;;;;19.95;8.88;;;5.50;99.90;;;;;;4995763;28;20014;-74
2022/01/14 01:40:14;;;;;;;26.48;9.05;;;5.50;99.90;;;;;;4977856;28;20023;-75
2022/01/14 01:42:43;;;;;;;18.20;7.70;;;5.50;99.90;;;;;;4980593;28;20015;-75
2022/01/14 01:45:11;;;;;;;24.02;9.10;;;5.40;99.90;;;;;;4993151;28;20023;-76
2022/01/14 01:47:38;;;;;;;22.42;8.95;;;5.40;99.90;;;;;;4994056;28;20027;-76
2022/01/14 01:50:11;;;;;;;29.85;10.15;;;5.30;99.90;;;;;;4994759;28;20027;-74
2022/01/14 01:52:37;;;;;;;34.67;9.27;;;5.30;99.90;;;;;;4994322;28;20035;-75
2022/01/14 01:55:04;;;;;;;26.38;9.18;;;5.30;99.90;;;;;;4994789;28;20039;-75
2022/01/14 01:57:30;;;;;;;28.42;9.40;;;5.30;99.90;;;;;;4994146;28;20043;-73
2022/01/14 01:59:55;;;;;;;24.70;9.65;;;5.20;99.90;;;;;;4994944;28;20546;-75
2022/01/14 02:02:21;;;;;;;38.67;9.93;;;5.30;99.90;;;;;;4994607;28;20033;-74
2022/01/14 02:04:47;;;;;;;27.38;9.68;;;5.30;99.90;;;;;;4993648;28;20038;-74
2022/01/14 02:07:13;;;;;;;26.05;10.07;;;5.20;99.90;;;;;;4993101;28;20027;-75
2022/01/14 02:09:39;;;;;;;43.97;10.75;;;5.20;99.90;;;;;;4993754;28;20043;-74
2022/01/14 02:12:09;;;;;;;39.85;9.88;;;5.20;99.90;;;;;;4992712;28;20047;-75
2022/01/14 02:22:52;;;;;;;28.08;9.52;;;5.20;99.90;;;;;;4998337;28;20049;-75
2022/01/14 02:25:28;;;;;;;34.20;11.02;;;5.20;99.90;;;;;;4996320;28;20406;-76
2022/01/14 02:27:55;;;;;;;34.35;9.88;;;5.20;99.90;;;;;;4997510;28;20430;-71
2022/01/14 02:30:22;;;;;;;28.97;10.23;;;5.10;99.90;;;;;;4996444;28;20043;-76
2022/01/14 02:32:48;;;;;;;24.88;9.48;;;5.20;99.90;;;;;;4995247;28;20054;-73
2022/01/14 02:35:14;;;;;;;34.05;10.90;;;5.20;99.90;;;;;;4984584;28;20027;-74
2022/01/14 02:37:40;;;;;;;25.70;9.20;;;5.10;99.90;;;;;;4975663;28;20036;-74
2022/01/14 02:40:06;;;;;;;50.53;9.75;;;5.10;99.90;;;;;;4982568;28;20031;-74
2022/01/14 02:42:32;;;;;;;31.42;10.43;;;5.10;99.90;;;;;;4961914;28;20054;-74
2022/01/14 02:45:02;;;;;;;27.80;10.35;;;5.10;99.90;;;;;;4968336;28;20549;-74
2022/01/14 02:47:28;;;;;;;28.83;9.95;;;5.10;99.90;;;;;;4978551;28;20110;-74
2022/01/14 02:49:54;;;;;;;30.45;11.48;;;5.10;99.90;;;;;;4978182;28;20019;-74
2022/01/14 02:52:30;;;;;;;36.70;10.88;;;5.10;99.90;;;;;;4977568;28;20033;-74
2022/01/14 02:55:14;;;;;;;27.58;10.05;;;5.10;99.90;;;;;;4964679;28;20030;-74
2022/01/14 02:57:43;;;;;;;32.70;10.23;;;5.10;99.90;;;;;;4965103;28;20050;-73
2022/01/14 03:00:09;;;;;;;31.35;10.20;;;5.10;99.90;;;;;;4974940;28;20070;-73
2022/01/14 03:02:36;;;;;;;31.10;10.10;;;5.10;99.90;;;;;;4976711;28;20039;-74
2022/01/14 03:05:03;;;;;;;22.40;9.95;;;5.00;99.90;;;;;;4975008;28;20038;-74
2022/01/14 03:07:28;;;;;;;40.25;10.25;;;5.00;99.90;;;;;;4976979;28;20061;-73
2022/01/14 03:09:54;;;;;;;27.13;10.02;;;5.00;99.90;;;;;;4975239;28;20561;-74
2022/01/14 03:12:20;;;;;;;28.77;9.57;;;5.00;99.90;;;;;;4976961;28;20038;-74
2022/01/14 03:14:46;;;;;;;47.00;11.77;;;5.00;99.90;;;;;;4976414;28;20023;-74
2022/01/14 03:17:12;;;;;;;27.25;10.68;;;4.90;99.90;;;;;;4976494;28;20030;-74
2022/01/14 03:19:37;;;;;;;24.08;9.80;;;5.00;99.90;;;;;;4977074;28;20525;-74
2022/01/14 03:22:17;;;;;;;33.05;10.35;;;5.00;99.90;;;;;;4975901;28;20117;-74
2022/01/14 03:27:09;;;;;;;38.90;11.38;;;4.80;99.90;;;;;;4976027;28;20496;-75
2022/01/14 03:29:35;;;;;;;34.83;11.20;;;4.80;99.90;;;;;;4975776;28;20126;-75
2022/01/14 03:32:03;;;;;;;23.80;9.35;;;4.90;99.90;;;;;;4976188;28;20082;-75
2022/01/14 03:34:28;;;;;;;26.88;10.27;;;4.80;99.90;;;;;;4976346;28;20070;-75
2022/01/14 03:36:54;;;;;;;21.42;10.70;;;4.90;99.90;;;;;;4975552;28;20066;-75
2022/01/14 03:39:20;;;;;;;33.45;11.63;;;4.90;99.90;;;;;;4958711;28;20114;-74
2022/01/14 03:41:46;;;;;;;25.13;9.90;;;4.90;99.90;;;;;;4960626;28;20085;-75
2022/01/14 03:44:12;;;;;;;27.38;11.18;;;4.90;99.90;;;;;;4975587;28;20038;-74
2022/01/14 03:46:37;;;;;;;22.27;8.65;;;4.90;99.90;;;;;;4975712;28;20471;-74
2022/01/14 03:49:03;;;;;;;31.52;9.35;;;4.90;99.90;;;;;;4976616;28;20019;-75
2022/01/14 03:51:29;;;;;;;28.98;10.90;;;4.90;99.90;;;;;;4974992;28;20110;-74
2022/01/14 03:53:56;;;;;;;25.98;9.63;;;4.90;99.90;;;;;;4976144;28;20065;-74
2022/01/14 03:56:25;;;;;;;25.60;9.80;;;4.90;99.90;;;;;;4976013;28;20046;-74
2022/01/14 03:58:52;;;;;;;23.42;10.18;;;5.00;99.90;;;;;;4975822;28;20030;-73
2022/01/14 04:01:19;;;;;;;32.00;10.20;;;4.90;99.90;;;;;;4975961;28;20038;-74
2022/01/14 04:03:47;;;;;;;27.10;10.90;;;4.90;99.90;;;;;;4976008;28;20085;-73
2022/01/14 04:06:13;;;;;;;23.02;10.27;;;4.90;99.90;;;;;;4975783;28;20084;-75
2022/01/14 04:08:40;;;;;;;27.17;10.07;;;4.90;99.90;;;;;;4974724;28;20114;-73
2022/01/14 04:11:07;;;;;;;24.23;9.98;;;4.90;99.90;;;;;;4975490;28;20018;-73
2022/01/14 04:13:50;;;;;;;23.52;9.32;;;4.90;99.90;;;;;;4974696;28;20034;-74
2022/01/14 04:16:18;;;;;;;24.70;9.13;;;4.90;99.90;;;;;;4955527;28;20040;-74
2022/01/14 04:18:43;;;;;;;19.73;9.07;;;5.00;99.90;;;;;;4956771;28;20488;-74
2022/01/14 04:21:09;;;;;;;24.52;9.80;;;4.90;99.90;;;;;;4961586;28;20035;-74
2022/01/14 04:23:35;;;;;;;21.27;9.43;;;4.90;99.90;;;;;;4975663;28;20038;-73
2022/01/14 04:26:01;;;;;;;21.70;8.85;;;5.00;99.90;;;;;;4975287;28;20034;-74
2022/01/14 04:28:30;;;;;;;22.55;8.70;;;4.90;99.90;;;;;;4975664;28;20027;-74
2022/01/14 04:30:58;;;;;;;20.70;8.63;;;5.00;99.90;;;;;;4974986;28;20034;-74
2022/01/14 04:33:27;;;;;;;20.08;9.52;;;5.00;99.90;;;;;;4973679;28;20507;-74
2022/01/14 04:35:57;;;;;;;15.45;8.20;;;5.00;99.90;;;;;;4973468;28;20030;-75
2022/01/14 04:38:23;;;;;;;17.70;8.73;;;5.00;99.90;;;;;;4958579;28;20031;-74
2022/01/14 04:40:49;;;;;;;25.60;9.30;;;5.00;99.90;;;;;;4959481;28;20101;-74
2022/01/14 04:43:17;;;;;;;23.23;9.90;;;4.90;99.90;;;;;;4973828;28;20058;-73
2022/01/14 04:45:56;;;;;;;19.83;8.15;;;4.90;99.90;;;;;;4973962;28;20042;-73
2022/01/14 04:48:22;;;;;;;16.77;8.10;;;5.00;99.90;;;;;;4974680;28;20035;-73
2022/01/14 04:50:50;;;;;;;28.25;9.65;;;5.00;99.90;;;;;;4973489;28;20475;-74
2022/01/14 04:53:15;;;;;;;16.85;7.65;;;5.00;99.90;;;;;;4975109;28;20479;-74
2022/01/14 04:55:41;;;;;;;19.63;8.45;;;4.90;99.90;;;;;;4964519;28;20027;-74
2022/01/14 04:58:07;;;;;;;25.30;10.50;;;4.90;99.90;;;;;;4961795;28;20062;-75
2022/01/14 05:00:32;;;;;;;23.75;8.13;;;4.80;99.90;;;;;;4974945;28;20031;-74
2022/01/14 05:02:58;;;;;;;27.50;8.75;;;4.80;99.90;;;;;;4974912;28;20030;-73
2022/01/14 05:05:27;;;;;;;24.77;8.85;;;4.80;99.90;;;;;;4974420;28;20034;-75
2022/01/14 05:07:53;;;;;;;28.23;9.32;;;4.80;99.90;;;;;;4968875;28;20062;-73
2022/01/14 05:10:34;;;;;;;38.60;8.82;;;4.70;99.90;;;;;;4974943;28;20042;-73
2022/01/14 05:13:00;;;;;;;29.95;9.18;;;4.70;99.90;;;;;;4970957;28;20023;-74
2022/01/14 05:15:25;;;;;;;22.15;9.38;;;4.60;99.90;;;;;;4968027;28;20483;-74
2022/01/14 05:17:52;;;;;;;25.52;8.93;;;4.70;99.90;;;;;;4973252;28;20057;-74
2022/01/14 05:20:19;;;;;;;19.45;8.63;;;4.70;99.90;;;;;;4974855;28;20171;-74
2022/01/14 05:22:45;;;;;;;21.00;8.60;;;4.70;99.90;;;;;;4974229;28;20383;-74
2022/01/14 05:25:13;;;;;;;17.08;8.00;;;4.70;99.90;;;;;;4972564;28;20078;-74
2022/01/14 05:27:39;;;;;;;14.80;7.72;;;4.80;99.90;;;;;;4974510;28;20042;-74
2022/01/14 05:30:07;;;;;;;20.13;7.88;;;4.90;99.90;;;;;;4974568;28;20035;-74
2022/01/14 05:32:34;;;;;;;18.52;7.57;;;4.90;99.90;;;;;;4972282;28;20101;-75
2022/01/14 05:34:59;;;;;;;16.63;7.68;;;4.90;99.90;;;;;;4970992;28;20483;-74
2022/01/14 05:37:25;;;;;;;20.77;8.65;;;4.90;99.90;;;;;;4973375;28;20387;-74
2022/01/14 05:39:51;;;;;;;15.02;7.25;;;4.90;99.90;;;;;;4974337;28;20031;-74
2022/01/14 05:42:17;;;;;;;19.40;7.88;;;4.90;99.90;;;;;;4972828;28;20079;-73
2022/01/14 05:44:43;;;;;;;16.85;8.13;;;4.90;99.90;;;;;;4974140;28;20395;-74
2022/01/14 05:47:08;;;;;;;27.02;8.05;;;5.00;99.90;;;;;;4972866;28;20039;-74
2022/01/14 05:49:34;;;;;;;18.50;7.88;;;5.00;99.90;;;;;;4973656;28;20027;-74
2022/01/14 05:52:00;;;;;;;18.85;8.02;;;5.00;99.90;;;;;;4974099;28;20053;-74
2022/01/14 05:54:26;;;;;;;19.30;7.70;;;5.00;99.90;;;;;;4973856;28;20027;-74
2022/01/14 05:56:51;;;;;;;18.02;8.45;;;5.00;99.90;;;;;;4971895;28;20081;-74
2022/01/14 05:59:18;;;;;;;14.30;7.80;;;4.90;99.90;;;;;;4973034;28;20031;-74
2022/01/14 06:01:45;;;;;;;20.20;8.27;;;4.90;99.90;;;;;;4972078;28;20027;-74
2022/01/14 06:04:11;;;;;;;16.40;7.75;;;4.90;99.90;;;;;;4974001;28;20042;-74
2022/01/14 06:06:37;;;;;;;17.35;8.18;;;4.80;99.90;;;;;;4972862;28;20027;-72
2022/01/14 06:09:04;;;;;;;17.70;7.70;;;4.80;99.90;;;;;;4973003;28;20019;-75
2022/01/14 06:11:30;;;;;;;18.67;7.90;;;4.80;99.90;;;;;;4973729;28;20059;-74
2022/01/14 06:13:56;;;;;;;20.55;8.20;;;4.80;99.90;;;;;;4974122;28;20046;-74
2022/01/14 06:16:21;;;;;;;13.27;6.85;;;4.70;99.90;;;;;;4974044;28;20093;-74
2022/01/14 06:18:47;;;;;;;18.80;7.05;;;4.70;99.90;;;;;;4973427;28;20495;-74
2022/01/14 06:21:13;;;;;;;17.13;7.50;;;4.70;99.90;;;;;;4972470;28;20399;-75
2022/01/14 06:23:38;;;;;;;16.48;8.25;;;4.70;99.90;;;;;;4974038;28;20039;-74
2022/01/14 06:26:05;;;;;;;15.05;7.32;;;4.70;99.90;;;;;;4969258;28;20410;-73
2022/01/14 06:28:31;;;;;;;18.45;6.80;;;4.60;99.90;;;;;;4972157;28;20174;-73
2022/01/14 06:30:56;;;;;;;13.15;6.78;;;4.60;99.90;;;;;;4974014;28;20503;-75
2022/01/14 06:33:22;;;;;;;14.32;7.75;;;4.50;99.90;;;;;;4971998;28;20098;-73
2022/01/14 06:35:49;;;;;;;23.83;7.03;;;4.50;99.90;;;;;;4972486;28;20026;-74
2022/01/14 06:38:16;;;;;;;33.53;7.47;;;4.60;99.90;;;;;;4972070;28;20093;-75
2022/01/14 06:40:42;;;;;;;15.27;7.53;;;4.60;99.90;;;;;;4973905;28;20034;-74
2022/01/14 06:43:08;;;;;;;24.55;7.68;;;4.60;99.90;;;;;;4973680;28;20030;-75
2022/01/14 06:45:33;;;;;;;24.88;7.88;;;4.50;99.90;;;;;;4973254;28;20053;-74
2022/01/14 06:47:59;;;;;;;18.38;7.35;;;4.60;99.90;;;;;;4971557;28;20041;-74
2022/01/14 06:50:25;;;;;;;18.13;7.53;;;4.60;99.90;;;;;;4973728;28;20479;-75
2022/01/14 06:52:52;;;;;;;25.20;7.85;;;4.60;99.90;;;;;;4973455;28;20054;-74
2022/01/14 06:55:18;;;;;;;16.60;7.45;;;4.60;99.90;;;;;;4973794;28;20506;-75
2022/01/14 06:57:43;;;;;;;16.27;7.68;;;4.60;99.90;;;;;;4973378;28;20030;-74
2022/01/14 07:00:12;;;;;;;22.55;6.68;;;4.60;99.90;;;;;;4973860;28;20057;-74
2022/01/14 07:02:39;;;;;;;16.98;7.15;;;4.60;99.90;;;;;;4973734;28;20043;-74
2022/01/14 07:05:05;;;;;;;18.70;7.40;;;4.60;99.90;;;;;;4976067;28;20034;-74
2022/01/14 07:07:32;;;;;;;21.90;7.20;;;4.60;99.90;;;;;;4975708;28;20043;-74
2022/01/14 07:09:58;;;;;;;15.95;6.95;;;4.70;99.90;;;;;;4975789;28;20034;-74
2022/01/14 07:12:44;;;;;;;14.45;6.32;;;4.70;99.90;;;;;;4976651;28;20046;-74
2022/01/14 07:15:15;;;;;;;19.60;6.78;;;4.70;99.90;;;;;;4972459;28;20047;-74
2022/01/14 07:17:42;;;;;;;23.08;8.05;;;4.70;99.90;;;;;;4963497;28;20046;-73
2022/01/14 07:20:13;;;;;;;19.45;7.43;;;4.70;99.90;;;;;;4975290;28;20479;-75
2022/01/14 07:22:40;;;;;;;18.83;6.72;;;4.60;99.90;;;;;;4973975;28;20406;-74
2022/01/14 07:25:07;;;;;;;13.20;6.80;;;4.60;99.90;;;;;;4975861;28;20046;-74
2022/01/14 07:27:32;;;;;;;16.20;7.10;;;4.60;99.90;;;;;;4976608;28;20027;-75
2022/01/14 07:29:58;;;;;;;20.15;7.70;;;4.60;99.90;;;;;;4977113;28;20039;-74
2022/01/14 07:32:24;;;;;;;17.60;7.95;;;4.60;99.90;;;;;;4975891;28;20058;-74
2022/01/14 07:34:50;;;;;;;13.57;7.05;;;4.70;99.90;;;;;;4976374;28;20403;-73
2022/01/14 07:37:16;;;;;;;17.00;7.55;;;4.70;99.90;;;;;;4972547;28;20114;-74
2022/01/14 07:39:42;;;;;;;19.35;7.65;;;4.70;99.90;;;;;;4975794;28;20383;-74
2022/01/14 07:42:08;;;;;;;13.82;6.97;;;4.80;99.90;;;;;;4976573;28;20030;-73
2022/01/14 07:44:34;;;;;;;15.63;7.50;;;4.80;99.90;;;;;;4976715;28;20415;-73
2022/01/14 07:47:00;;;;;;;24.70;8.00;;;4.80;99.90;;;;;;4975021;28;20074;-74
2022/01/14 07:49:25;;;;;;;15.75;7.43;;;4.80;99.90;;;;;;4976521;28;20487;-74
2022/01/14 07:51:51;;;;;;;19.45;7.13;;;4.80;99.90;;;;;;4975001;28;20030;-74
2022/01/14 07:54:17;;;;;;;14.63;7.30;;;4.90;99.90;;;;;;4976064;28;20015;-75
2022/01/14 07:56:45;;;;;;;17.60;7.78;;;4.90;99.90;;;;;;4972612;28;20440;-75
2022/01/14 07:59:13;;;;;;;18.60;7.55;;;4.90;99.90;;;;;;4973821;28;20031;-75
2022/01/14 08:01:40;;;;;;;16.02;8.00;;;4.90;99.90;;;;;;4975675;28;20035;-73
2022/01/14 08:04:06;;;;;;;17.30;7.32;;;4.90;99.90;;;;;;4975698;28;20403;-75
2022/01/14 08:06:37;;;;;;;16.10;7.32;;;4.90;99.90;;;;;;4975361;28;20030;-74
2022/01/14 08:09:02;;;;;;;16.92;7.65;;;5.00;99.90;;;;;;4974824;28;20451;-74
2022/01/14 08:11:28;;;;;;;17.75;7.63;;;5.00;99.90;;;;;;4975654;28;20035;-74
2022/01/14 08:13:54;;;;;;;18.00;7.35;;;5.00;99.90;;;;;;4974597;28;20125;-74
2022/01/14 08:16:19;;;;;;;21.05;8.77;;;5.00;99.90;;;;;;4974585;28;20117;-73
2022/01/14 08:18:45;;;;;;;21.15;7.85;;;5.00;99.90;;;;;;4975114;28;20027;-74
2022/01/14 08:21:11;;;;;;;18.75;8.20;;;5.10;99.90;;;;;;4976489;28;20086;-74
2022/01/14 08:23:39;;;;;;;13.77;7.68;;;5.10;99.90;;;;;;4974769;28;20387;-74
2022/01/14 08:26:05;;;;;;;;;;;5.10;99.90;;;;;;4974728;28;20027;-74
2022/01/14 08:28:30;;;;;;;17.65;7.95;;;5.00;99.90;;;;;;4976347;28;20429;-74
2022/01/14 08:30:56;;;;;;;20.95;7.82;;;5.10;99.90;;;;;;4977256;28;20019;-74
2022/01/14 08:33:22;;;;;;;18.83;8.00;;;5.10;99.90;;;;;;4988058;28;20123;-74
2022/01/14 08:35:48;;;;;;;18.33;7.93;;;5.10;99.90;;;;;;4989215;28;20041;-74
2022/01/14 08:38:14;;;;;;;19.67;8.15;;;5.10;99.90;;;;;;4985219;28;20038;-74
2022/01/14 08:40:40;;;;;;;12.80;7.40;;;5.10;99.90;;;;;;4983345;28;20041;-74
2022/01/14 08:43:06;;;;;;;14.30;7.78;;;5.20;99.90;;;;;;4974498;29;20031;-75
2022/01/14 08:45:32;;;;;;;17.73;7.38;;;5.10;99.90;;;;;;4987864;28;20594;-75
2022/01/14 08:47:58;;;;;;;19.92;7.28;;;5.10;99.90;;;;;;4994593;28;20085;-74
2022/01/14 08:50:31;;;;;;;13.57;6.75;;;5.10;99.90;;;;;;4995653;28;20019;-73
2022/01/14 08:52:59;;;;;;;13.27;7.18;;;5.10;99.90;;;;;;4995746;28;20026;-76
2022/01/14 08:55:25;;;;;;;12.98;6.30;;;5.10;99.90;;;;;;4997859;28;20027;-74
2022/01/14 08:57:52;;;;;;;11.65;6.30;;;5.10;99.90;;;;;;4995675;28;20011;-75
2022/01/14 09:00:19;;;;;;;17.13;7.90;;;5.20;99.90;;;;;;4992535;28;20014;-74
2022/01/14 09:02:44;;;;;;;12.85;7.07;;;5.20;99.90;;;;;;4995385;28;20031;-76
2022/01/14 09:05:11;;;;;;;11.35;6.60;;;5.20;99.90;;;;;;4997405;28;20045;-73
2022/01/14 09:07:37;;;;;;;15.90;7.10;;;5.20;99.90;;;;;;4994227;28;20038;-76
2022/01/14 09:10:05;;;;;;;15.43;7.03;;;5.20;99.90;;;;;;4992260;28;20030;-73
2022/01/14 09:12:30;;;;;;;15.35;6.63;;;5.20;99.90;;;;;;4982377;28;20019;-75
2022/01/14 09:14:56;;;;;;;15.57;7.35;;;5.30;99.90;;;;;;4994309;28;20025;-76
2022/01/14 09:17:22;;;;;;;15.93;7.30;;;5.30;99.90;;;;;;4996966;28;20173;-75
2022/01/14 09:19:47;;;;;;;15.82;6.53;;;5.30;99.90;;;;;;4997513;28;20030;-75
2022/01/14 09:22:18;;;;;;;18.30;6.65;;;5.30;99.90;;;;;;4996275;28;20030;-75
2022/01/14 09:24:45;;;;;;;17.55;7.97;;;5.30;99.90;;;;;;4997531;28;20052;-75
2022/01/14 09:27:12;;;;;;;15.00;7.87;;;5.40;99.90;;;;;;4995398;28;20030;-73
2022/01/14 09:29:38;;;;;;;14.73;7.82;;;5.40;99.90;;;;;;4995100;28;20345;-74
2022/01/14 09:32:05;;;;;;;20.58;7.53;;;5.40;99.90;;;;;;4996367;28;20088;-74
2022/01/14 09:34:31;;;;;;;17.55;8.10;;;5.40;99.90;;;;;;4997865;28;20095;-79
2022/01/14 09:36:57;;;;;;;13.40;7.18;;;5.50;99.90;;;;;;4998634;28;20011;-75
2022/01/14 09:39:22;;;;;;;11.30;6.47;;;5.60;99.90;;;;;;4998723;28;20025;-75
2022/01/14 09:41:48;;;;;;;15.55;7.78;;;5.70;99.90;;;;;;4997289;28;20073;-77
2022/01/14 09:44:15;;;;;;;23.15;8.48;;;5.70;99.90;;;;;;4996597;28;20033;-74
2022/01/14 09:46:41;;;;;;;19.83;8.48;;;5.80;99.90;;;;;;4994576;28;20554;-76
2022/01/14 09:49:06;;;;;;;22.38;9.05;;;5.80;99.90;;;;;;4994569;28;20038;-74
2022/01/14 09:51:32;;;;;;;17.77;8.02;;;5.80;99.90;;;;;;4983616;28;20027;-75
2022/01/14 09:53:58;;;;;;;17.52;8.82;;;5.80;99.90;;;;;;4980592;28;20077;-75
2022/01/14 09:56:24;;;;;;;21.50;8.80;;;5.80;99.90;;;;;;4977671;28;20050;-75
2022/01/14 09:58:51;;;;;;;15.27;8.55;;;5.90;99.90;;;;;;4977755;28;20495;-75
2022/01/14 10:01:19;;;;;;;16.95;8.95;;;5.90;99.90;;;;;;4970261;28;20027;-75
2022/01/14 10:04:01;;;;;;;19.35;9.45;;;5.90;99.90;;;;;;4974565;28;20031;-76
2022/01/14 10:06:51;;;;;;;20.50;9.43;;;5.90;99.90;;;;;;4962871;28;20030;-75
2022/01/14 10:09:24;;;;;;;19.63;7.93;;;6.00;99.90;;;;;;4974667;28;20034;-76
2022/01/14 10:12:20;;;;;;;18.42;9.18;;;6.00;99.90;;;;;;4970795;28;20407;-77
2022/01/14 10:15:03;;;;;;;17.60;8.75;;;6.00;99.90;;;;;;4965965;28;20195;-77
2022/01/14 10:17:37;;;;;;;15.98;8.52;;;6.10;99.90;;;;;;4965121;28;20129;-77
2022/01/14 10:20:03;;;;;;;16.67;9.40;;;6.20;99.90;;;;;;4968317;28;20578;-76
2022/01/14 10:22:34;;;;;;;19.17;9.57;;;6.20;99.90;;;;;;4966788;28;20038;-75
2022/01/14 10:25:02;;;;;;;15.70;8.32;;;6.30;99.90;;;;;;4966689;28;20034;-76
2022/01/14 10:27:35;;;;;;;18.30;9.05;;;6.30;99.90;;;;;;4970999;28;20483;-77
2022/01/14 10:30:12;;;;;;;18.20;9.10;;;6.30;99.90;;;;;;4971966;28;20062;-75
2022/01/14 10:32:40;;;;;;;13.82;7.75;;;6.40;99.90;;;;;;4966558;28;20045;-77
2022/01/14 10:35:08;;;;;;;14.30;8.05;;;6.40;99.90;;;;;;4975158;28;20487;-75
2022/01/14 10:37:34;;;;;;;21.80;8.77;;;6.40;99.90;;;;;;4978252;28;20105;-77
2022/01/14 10:40:02;;;;;;;14.98;9.25;;;6.50;99.90;;;;;;4976008;28;20022;-77
2022/01/14 10:42:30;;;;;;;20.33;8.67;;;6.40;99.90;;;;;;4976208;28;20092;-77
2022/01/14 10:45:09;;;;;;;;;;;6.50;99.90;;;;;;4978067;28;20274;-77
2022/01/14 10:47:34;;;;;;;14.95;7.90;;;6.60;99.90;;;;;;4976595;28;19921;-77
2022/01/14 10:50:00;;;;;;;15.65;8.57;;;6.60;99.90;;;;;;4974037;28;20371;-77
2022/01/14 10:52:26;;;;;;;18.25;9.70;;;6.60;99.90;;;;;;4969102;28;20150;-77
2022/01/14 10:54:58;;;;;;;21.00;9.50;;;6.70;99.90;;;;;;4980777;28;20066;-78
2022/01/14 10:57:27;;;;;;;17.25;8.23;;;6.70;99.90;;;;;;4974133;28;20107;-76
2022/01/14 10:59:56;;;;;;;15.27;9.48;;;6.80;99.90;;;;;;4967821;28;20026;-76
2022/01/14 11:02:41;;;;;;;16.05;8.95;;;6.70;99.90;;;;;;4961512;28;20455;-76
2022/01/14 11:05:06;;;;;;;22.75;8.75;;;6.70;99.90;;;;;;4977893;28;20110;-76
2022/01/14 11:07:32;;;;;;;20.15;8.75;;;6.70;99.90;;;;;;4976319;28;20166;-77
2022/01/14 11:10:11;;;;;;;17.70;9.40;;;6.70;99.90;;;;;;4977517;28;20034;-76
2022/01/14 11:12:37;;;;;;;22.65;9.88;;;6.80;99.90;;;;;;4960196;28;20503;-77
2022/01/14 11:15:03;;;;;;;18.42;9.65;;;6.80;99.90;;;;;;4958205;28;20027;-76
2022/01/14 11:17:29;;;;;;;17.10;8.40;;;6.80;99.90;;;;;;4976788;28;20522;-77
2022/01/14 11:19:56;;;;;;;18.77;9.40;;;6.80;99.90;;;;;;4972248;28;20042;-76
2022/01/14 11:25:10;;;;;;;21.92;10.65;;;6.90;99.90;;;;;;4970680;28;20054;-77
2022/01/14 11:27:38;;;;;;;27.08;10.88;;;7.00;99.90;;;;;;4975916;28;20053;-77
2022/01/14 11:30:04;;;;;;;24.45;11.25;;;7.00;99.90;;;;;;4977068;28;20030;-77
2022/01/14 11:32:56;;;;;;;18.98;9.52;;;7.00;99.90;;;;;;4969091;28;20074;-78
2022/01/14 11:35:25;;;;;;;26.23;11.27;;;7.10;99.90;;;;;;4956549;28;20039;-77
2022/01/14 11:37:51;;;;;;;16.25;9.27;;;7.10;99.90;;;;;;4961702;28;20027;-77
2022/01/14 11:40:19;;;;;;;25.00;10.10;;;7.10;99.90;;;;;;4966486;28;20494;-77
2022/01/14 11:42:51;;;;;;;25.88;10.52;;;7.20;99.90;;;;;;4977035;28;20027;-76
2022/01/14 11:45:43;;;;;;;20.98;9.98;;;7.20;99.90;;;;;;4974460;28;20411;-77
2022/01/14 11:48:33;;;;;;;23.33;10.40;;;7.30;99.90;;;;;;4973698;28;20073;-77
2022/01/14 11:51:04;;;;;;;21.80;9.95;;;7.30;99.90;;;;;;4975076;28;20526;-77
2022/01/14 11:53:37;;;;;;;19.10;9.90;;;7.40;99.90;;;;;;4975996;28;20510;-77
2022/01/14 11:56:07;;;;;;;18.98;9.63;;;7.40;99.90;;;;;;4976341;28;20027;-76
2022/01/14 11:58:33;;;;;;;21.38;10.90;;;7.40;99.90;;;;;;4973864;28;20100;-77
2022/01/14 12:00:58;;;;;;;27.52;11.15;;;7.50;99.90;;;;;;4974531;28;20050;-76
2022/01/14 12:03:26;;;;;;;25.95;10.65;;;7.50;99.90;;;;;;4976320;28;20541;-77
2022/01/14 12:06:07;;;;;;;21.50;8.40;;;7.50;99.90;;;;;;4974613;28;20015;-76
2022/01/14 12:08:36;;;;;;;21.33;10.30;;;7.50;99.90;;;;;;4971187;28;20403;-75
2022/01/14 12:11:07;;;;;;;18.52;9.93;;;7.60;99.90;;;;;;4970340;28;20101;-76
2022/01/14 12:13:49;;;;;;;27.85;10.68;;;7.60;99.90;;;;;;4974551;28;20031;-76
2022/01/14 12:18:58;;;;;;;14.50;9.13;;;7.60;99.90;;;;;;4975852;28;20139;-76
2022/01/14 12:21:44;;;;;;;23.98;10.02;;;7.60;99.90;;;;;;4976011;28;20436;-75
2022/01/14 12:24:19;;;;;;;24.00;10.32;;;7.60;99.90;;;;;;4960846;28;20379;-77
2022/01/14 12:27:11;;;;;;;19.90;9.32;;;7.60;99.90;;;;;;4975875;28;20031;-76
2022/01/14 12:29:50;;;;;;;22.92;10.77;;;7.60;99.90;;;;;;4975654;28;20027;-76
2022/01/14 12:32:30;;;;;;;32.70;10.63;;;7.60;99.90;;;;;;4975035;28;20090;-76
2022/01/14 12:34:56;;;;;;;19.63;10.40;;;7.70;99.90;;;;;;4970996;28;20149;-76
2022/01/14 12:37:31;;;;;;;27.38;11.48;;;7.70;99.90;;;;;;4974563;28;20054;-75
2022/01/14 12:40:02;;;;;;;22.63;11.50;;;7.70;99.90;;;;;;4968722;28;20027;-77
2022/01/14 12:42:28;;;;;;;26.55;11.85;;;7.70;99.90;;;;;;4973712;28;20038;-77
2022/01/14 12:44:54;;;;;;;22.55;11.50;;;7.70;99.90;;;;;;4969198;28;20034;-76
2022/01/14 12:47:26;;;;;;;20.48;11.02;;;7.80;99.90;;;;;;4968747;28;20046;-76
2022/01/14 12:49:53;;;;;;;29.27;12.27;;;7.90;99.90;;;;;;4967240;28;20487;-76
2022/01/14 12:52:37;;;;;;;34.55;13.07;;;7.90;99.90;;;;;;4966414;28;20110;-76
2022/01/14 12:55:06;;;;;;;23.67;11.57;;;7.90;99.90;;;;;;4967213;28;20049;-77
2022/01/14 12:57:31;;;;;;;24.85;11.68;;;7.90;99.90;;;;;;4967198;28;20029;-78
2022/01/14 12:59:57;;;;;;;27.50;13.00;;;7.90;99.90;;;;;;4965408;28;20026;-78
2022/01/14 13:02:31;;;;;;;22.13;11.52;;;7.90;99.90;;;;;;4965519;28;20058;-77
2022/01/14 13:05:08;;;;;;;20.17;11.75;;;7.90;99.90;;;;;;4964646;28;20118;-76
2022/01/14 13:07:36;;;;;;;21.48;11.48;;;8.00;99.90;;;;;;4971938;28;20035;-76
2022/01/14 13:10:05;;;;;;;20.17;10.55;;;8.00;99.90;;;;;;4969477;28;20109;-75
2022/01/14 13:12:35;;;;;;;21.33;10.75;;;8.00;99.90;;;;;;4972753;28;20027;-76
2022/01/14 13:15:04;;;;;;;27.90;11.23;;;8.00;99.90;;;;;;4965465;28;20069;-76
2022/01/14 13:17:34;;;;;;;23.67;11.23;;;8.00;99.90;;;;;;4966271;28;20118;-77
2022/01/14 13:20:10;;;;;;;20.13;10.98;;;8.00;99.90;;;;;;4964707;28;20043;-76